sensor_id;sensor_type;location;lat;lon;timestamp;temperature;humidity
7942;HTU21D;4016;50.758;7.150;2023-04-25T00:01:58;7.93;118.05
7942;HTU21D;4016;50.758;7.150;2023-04-25T00:07:00;7.94;117.93
7942;HTU21D;4016;50.758;7.150;2023-04-25T00:12:03;7.93;117.01
7942;HTU21D;4016;50.758;7.150;2023-04-25T00:17:04;7.85;117.03
7942;HTU21D;4016;50.758;7.150;2023-04-25T00:22:04;7.94;117.80
7942;HTU21D;4016;50.758;7.150;2023-04-25T00:27:05;7.91;117.26
7942;HTU21D;4016;50.758;7.150;2023-04-25T00:32:06;7.93;116.41
7942;HTU21D;4016;50.758;7.150;2023-04-25T00:37:06;7.76;117.99
7942;HTU21D;4016;50.758;7.150;2023-04-25T00:42:07;7.85;117.90
7942;HTU21D;4016;50.758;7.150;2023-04-25T00:47:08;7.74;118.31
7942;HTU21D;4016;50.758;7.150;2023-04-25T00:52:09;7.58;118.99
7942;HTU21D;4016;50.758;7.150;2023-04-25T00:57:10;7.42;118.99
7942;HTU21D;4016;50.758;7.150;2023-04-25T01:02:10;7.35;118.99
7942;HTU21D;4016;50.758;7.150;2023-04-25T01:07:11;7.23;118.99
7942;HTU21D;4016;50.758;7.150;2023-04-25T01:12:11;7.17;118.99
7942;HTU21D;4016;50.758;7.150;2023-04-25T01:17:12;6.99;118.99
7942;HTU21D;4016;50.758;7.150;2023-04-25T01:22:13;6.90;118.99
7942;HTU21D;4016;50.758;7.150;2023-04-25T01:27:15;6.82;118.99
7942;HTU21D;4016;50.758;7.150;2023-04-25T01:32:15;6.69;118.99
7942;HTU21D;4016;50.758;7.150;2023-04-25T01:37:16;6.59;118.99
7942;HTU21D;4016;50.758;7.150;2023-04-25T01:42:17;6.46;118.99
7942;HTU21D;4016;50.758;7.150;2023-04-25T01:47:18;6.40;118.99
7942;HTU21D;4016;50.758;7.150;2023-04-25T01:52:18;6.29;118.99
7942;HTU21D;4016;50.758;7.150;2023-04-25T01:57:18;6.29;118.99
7942;HTU21D;4016;50.758;7.150;2023-04-25T02:02:19;6.26;118.99
7942;HTU21D;4016;50.758;7.150;2023-04-25T02:07:19;6.12;118.99
7942;HTU21D;4016;50.758;7.150;2023-04-25T02:12:19;5.99;118.99
7942;HTU21D;4016;50.758;7.150;2023-04-25T02:17:20;5.96;118.99
7942;HTU21D;4016;50.758;7.150;2023-04-25T02:22:21;5.98;118.99
7942;HTU21D;4016;50.758;7.150;2023-04-25T02:27:22;5.96;118.99
7942;HTU21D;4016;50.758;7.150;2023-04-25T02:32:22;6.00;118.99
7942;HTU21D;4016;50.758;7.150;2023-04-25T02:37:22;6.00;118.99
7942;HTU21D;4016;50.758;7.150;2023-04-25T02:42:23;6.01;118.99
7942;HTU21D;4016;50.758;7.150;2023-04-25T02:47:23;6.09;118.99
7942;HTU21D;4016;50.758;7.150;2023-04-25T02:52:24;6.10;118.99
7942;HTU21D;4016;50.758;7.150;2023-04-25T02:57:25;6.08;118.99
7942;HTU21D;4016;50.758;7.150;2023-04-25T03:02:25;6.09;118.99
7942;HTU21D;4016;50.758;7.150;2023-04-25T03:07:25;6.06;118.99
7942;HTU21D;4016;50.758;7.150;2023-04-25T03:12:26;6.04;118.99
7942;HTU21D;4016;50.758;7.150;2023-04-25T03:17:26;5.98;118.99
7942;HTU21D;4016;50.758;7.150;2023-04-25T03:22:26;5.97;118.99
7942;HTU21D;4016;50.758;7.150;2023-04-25T03:27:27;5.91;118.99
7942;HTU21D;4016;50.758;7.150;2023-04-25T03:32:27;5.89;118.99
7942;HTU21D;4016;50.758;7.150;2023-04-25T03:37:27;5.86;118.99
7942;HTU21D;4016;50.758;7.150;2023-04-25T03:42:28;5.75;118.99
7942;HTU21D;4016;50.758;7.150;2023-04-25T03:47:28;5.68;118.99
7942;HTU21D;4016;50.758;7.150;2023-04-25T03:52:29;5.66;118.99
7942;HTU21D;4016;50.758;7.150;2023-04-25T03:57:30;5.66;118.99
7942;HTU21D;4016;50.758;7.150;2023-04-25T04:02:30;5.70;118.99
7942;HTU21D;4016;50.758;7.150;2023-04-25T04:07:31;5.74;118.99
7942;HTU21D;4016;50.758;7.150;2023-04-25T04:12:33;5.81;118.99
7942;HTU21D;4016;50.758;7.150;2023-04-25T04:17:33;5.81;118.99
7942;HTU21D;4016;50.758;7.150;2023-04-25T04:22:34;5.89;118.99
7942;HTU21D;4016;50.758;7.150;2023-04-25T04:27:35;6.05;118.99
7942;HTU21D;4016;50.758;7.150;2023-04-25T04:32:35;6.01;118.99
7942;HTU21D;4016;50.758;7.150;2023-04-25T04:37:37;6.12;118.99
7942;HTU21D;4016;50.758;7.150;2023-04-25T04:42:38;6.20;118.99
7942;HTU21D;4016;50.758;7.150;2023-04-25T04:47:39;6.20;118.99
7942;HTU21D;4016;50.758;7.150;2023-04-25T04:52:39;6.31;118.99
7942;HTU21D;4016;50.758;7.150;2023-04-25T04:57:40;6.36;118.99
7942;HTU21D;4016;50.758;7.150;2023-04-25T05:02:40;6.33;118.99
7942;HTU21D;4016;50.758;7.150;2023-04-25T05:07:40;6.43;118.99
7942;HTU21D;4016;50.758;7.150;2023-04-25T05:12:41;6.49;118.99
7942;HTU21D;4016;50.758;7.150;2023-04-25T05:17:41;6.66;118.99
7942;HTU21D;4016;50.758;7.150;2023-04-25T05:22:41;6.73;118.99
7942;HTU21D;4016;50.758;7.150;2023-04-25T05:27:42;6.84;118.99
7942;HTU21D;4016;50.758;7.150;2023-04-25T05:32:42;6.99;118.99
7942;HTU21D;4016;50.758;7.150;2023-04-25T05:37:42;7.05;118.99
7942;HTU21D;4016;50.758;7.150;2023-04-25T05:42:43;7.15;118.99
7942;HTU21D;4016;50.758;7.150;2023-04-25T05:47:43;7.34;118.99
7942;HTU21D;4016;50.758;7.150;2023-04-25T05:52:44;7.45;118.99
7942;HTU21D;4016;50.758;7.150;2023-04-25T05:57:45;7.74;118.99
7942;HTU21D;4016;50.758;7.150;2023-04-25T06:02:45;7.73;118.99
7942;HTU21D;4016;50.758;7.150;2023-04-25T06:07:45;7.73;118.99
7942;HTU21D;4016;50.758;7.150;2023-04-25T06:12:46;7.82;118.99
7942;HTU21D;4016;50.758;7.150;2023-04-25T06:17:46;7.83;118.99
7942;HTU21D;4016;50.758;7.150;2023-04-25T06:22:47;7.76;118.99
7942;HTU21D;4016;50.758;7.150;2023-04-25T06:27:47;7.78;118.33
7942;HTU21D;4016;50.758;7.150;2023-04-25T06:32:47;7.92;115.91
7942;HTU21D;4016;50.758;7.150;2023-04-25T06:37:49;8.05;118.75
7942;HTU21D;4016;50.758;7.150;2023-04-25T06:42:49;8.47;113.79
7942;HTU21D;4016;50.758;7.150;2023-04-25T06:47:50;8.43;111.25
7942;HTU21D;4016;50.758;7.150;2023-04-25T06:52:50;8.23;113.44
7942;HTU21D;4016;50.758;7.150;2023-04-25T06:57:51;8.41;110.10
7942;HTU21D;4016;50.758;7.150;2023-04-25T07:02:51;8.75;110.59
7942;HTU21D;4016;50.758;7.150;2023-04-25T07:07:51;8.79;109.59
7942;HTU21D;4016;50.758;7.150;2023-04-25T07:12:52;9.40;105.24
7942;HTU21D;4016;50.758;7.150;2023-04-25T07:17:52;9.61;102.32
7942;HTU21D;4016;50.758;7.150;2023-04-25T07:22:52;9.94;101.30
7942;HTU21D;4016;50.758;7.150;2023-04-25T07:27:53;10.11;97.86
7942;HTU21D;4016;50.758;7.150;2023-04-25T07:32:53;9.86;99.91
7942;HTU21D;4016;50.758;7.150;2023-04-25T07:37:54;9.80;95.62
7942;HTU21D;4016;50.758;7.150;2023-04-25T07:42:54;9.82;98.46
7942;HTU21D;4016;50.758;7.150;2023-04-25T07:47:54;9.95;96.04
7942;HTU21D;4016;50.758;7.150;2023-04-25T07:52:55;9.76;95.59
7942;HTU21D;4016;50.758;7.150;2023-04-25T07:57:55;9.69;97.17
7942;HTU21D;4016;50.758;7.150;2023-04-25T08:02:56;9.75;95.62
7942;HTU21D;4016;50.758;7.150;2023-04-25T08:07:56;10.10;96.42
7942;HTU21D;4016;50.758;7.150;2023-04-25T08:12:57;10.70;88.43
7942;HTU21D;4016;50.758;7.150;2023-04-25T08:17:57;10.87;81.81
7942;HTU21D;4016;50.758;7.150;2023-04-25T08:22:57;10.68;77.05
7942;HTU21D;4016;50.758;7.150;2023-04-25T08:27:58;10.69;75.44
7942;HTU21D;4016;50.758;7.150;2023-04-25T08:32:59;10.25;80.32
7942;HTU21D;4016;50.758;7.150;2023-04-25T08:38:00;10.41;76.76
7942;HTU21D;4016;50.758;7.150;2023-04-25T08:43:01;10.26;82.29
7942;HTU21D;4016;50.758;7.150;2023-04-25T08:48:04;10.36;78.43
7942;HTU21D;4016;50.758;7.150;2023-04-25T08:53:08;10.36;80.69
7942;HTU21D;4016;50.758;7.150;2023-04-25T08:58:10;10.36;75.76
7942;HTU21D;4016;50.758;7.150;2023-04-25T09:03:11;10.54;75.00
7942;HTU21D;4016;50.758;7.150;2023-04-25T09:08:12;10.85;76.79
7942;HTU21D;4016;50.758;7.150;2023-04-25T09:13:14;11.03;69.65
7942;HTU21D;4016;50.758;7.150;2023-04-25T09:23:25;10.97;70.50
7942;HTU21D;4016;50.758;7.150;2023-04-25T09:28:26;11.03;65.55
7942;HTU21D;4016;50.758;7.150;2023-04-25T09:33:31;10.80;66.36
7942;HTU21D;4016;50.758;7.150;2023-04-25T09:38:42;10.90;70.71
7942;HTU21D;4016;50.758;7.150;2023-04-25T09:43:45;10.88;68.06
7942;HTU21D;4016;50.758;7.150;2023-04-25T09:48:50;11.13;70.98
7942;HTU21D;4016;50.758;7.150;2023-04-25T09:53:51;11.22;66.30
7942;HTU21D;4016;50.758;7.150;2023-04-25T09:58:53;11.28;66.15
7942;HTU21D;4016;50.758;7.150;2023-04-25T10:03:56;11.43;67.39
7942;HTU21D;4016;50.758;7.150;2023-04-25T10:08:58;11.24;73.63
7942;HTU21D;4016;50.758;7.150;2023-04-25T10:14:00;11.23;69.10
7942;HTU21D;4016;50.758;7.150;2023-04-25T10:19:00;10.95;66.62
7942;HTU21D;4016;50.758;7.150;2023-04-25T10:24:02;10.88;66.07
7942;HTU21D;4016;50.758;7.150;2023-04-25T10:29:03;10.85;62.35
7942;HTU21D;4016;50.758;7.150;2023-04-25T10:34:04;11.18;62.44
7942;HTU21D;4016;50.758;7.150;2023-04-25T10:39:06;11.23;59.04
7942;HTU21D;4016;50.758;7.150;2023-04-25T10:44:09;11.01;64.15
7942;HTU21D;4016;50.758;7.150;2023-04-25T10:49:10;10.57;65.58
7942;HTU21D;4016;50.758;7.150;2023-04-25T10:54:11;10.15;66.75
7942;HTU21D;4016;50.758;7.150;2023-04-25T10:59:13;10.05;70.15
7942;HTU21D;4016;50.758;7.150;2023-04-25T11:04:29;10.05;74.14
7942;HTU21D;4016;50.758;7.150;2023-04-25T11:09:29;10.06;73.49
7942;HTU21D;4016;50.758;7.150;2023-04-25T11:14:30;10.11;74.47
7942;HTU21D;4016;50.758;7.150;2023-04-25T11:19:31;10.38;76.18
7942;HTU21D;4016;50.758;7.150;2023-04-25T11:24:33;10.67;71.93
7942;HTU21D;4016;50.758;7.150;2023-04-25T11:29:37;11.37;66.95
7942;HTU21D;4016;50.758;7.150;2023-04-25T11:34:37;11.49;61.99
7942;HTU21D;4016;50.758;7.150;2023-04-25T11:39:38;11.59;63.32
7942;HTU21D;4016;50.758;7.150;2023-04-25T11:44:39;11.23;60.54
7942;HTU21D;4016;50.758;7.150;2023-04-25T11:49:40;10.85;64.34
7942;HTU21D;4016;50.758;7.150;2023-04-25T11:54:44;10.78;66.47
7942;HTU21D;4016;50.758;7.150;2023-04-25T11:59:44;10.42;67.99
7942;HTU21D;4016;50.758;7.150;2023-04-25T12:04:45;10.51;69.13
7942;HTU21D;4016;50.758;7.150;2023-04-25T12:09:51;10.52;67.97
7942;HTU21D;4016;50.758;7.150;2023-04-25T12:14:52;10.77;62.29
7942;HTU21D;4016;50.758;7.150;2023-04-25T12:19:52;10.82;59.10
7942;HTU21D;4016;50.758;7.150;2023-04-25T12:24:52;11.23;58.10
7942;HTU21D;4016;50.758;7.150;2023-04-25T12:29:55;11.41;52.70
7942;HTU21D;4016;50.758;7.150;2023-04-25T12:34:56;11.16;54.69
7942;HTU21D;4016;50.758;7.150;2023-04-25T12:39:56;11.19;57.34
7942;HTU21D;4016;50.758;7.150;2023-04-25T12:44:57;11.69;57.57
7942;HTU21D;4016;50.758;7.150;2023-04-25T12:49:57;12.33;56.22
7942;HTU21D;4016;50.758;7.150;2023-04-25T12:54:57;12.74;54.71
7942;HTU21D;4016;50.758;7.150;2023-04-25T12:59:58;12.91;52.75
7942;HTU21D;4016;50.758;7.150;2023-04-25T13:04:58;13.12;53.75
7942;HTU21D;4016;50.758;7.150;2023-04-25T13:09:58;13.05;44.96
7942;HTU21D;4016;50.758;7.150;2023-04-25T13:14:59;13.16;43.87
7942;HTU21D;4016;50.758;7.150;2023-04-25T13:19:59;13.54;43.88
7942;HTU21D;4016;50.758;7.150;2023-04-25T13:25:00;13.50;43.90
7942;HTU21D;4016;50.758;7.150;2023-04-25T13:30:00;13.08;45.95
7942;HTU21D;4016;50.758;7.150;2023-04-25T13:35:09;12.48;48.65
7942;HTU21D;4016;50.758;7.150;2023-04-25T13:40:10;12.10;47.64
7942;HTU21D;4016;50.758;7.150;2023-04-25T13:45:11;11.82;52.89
7942;HTU21D;4016;50.758;7.150;2023-04-25T13:50:11;11.98;54.23
7942;HTU21D;4016;50.758;7.150;2023-04-25T13:55:12;11.36;54.41
7942;HTU21D;4016;50.758;7.150;2023-04-25T14:00:13;11.19;56.79
7942;HTU21D;4016;50.758;7.150;2023-04-25T14:05:13;11.23;53.12
7942;HTU21D;4016;50.758;7.150;2023-04-25T14:10:14;11.32;55.00
7942;HTU21D;4016;50.758;7.150;2023-04-25T14:15:14;11.40;55.36
7942;HTU21D;4016;50.758;7.150;2023-04-25T14:20:15;11.53;53.88
7942;HTU21D;4016;50.758;7.150;2023-04-25T14:25:20;11.78;51.40
7942;HTU21D;4016;50.758;7.150;2023-04-25T14:30:21;11.64;54.61
7942;HTU21D;4016;50.758;7.150;2023-04-25T14:35:21;11.99;52.16
7942;HTU21D;4016;50.758;7.150;2023-04-25T14:40:22;12.13;48.29
7942;HTU21D;4016;50.758;7.150;2023-04-25T14:45:23;12.51;48.52
7942;HTU21D;4016;50.758;7.150;2023-04-25T14:50:23;12.92;46.72
7942;HTU21D;4016;50.758;7.150;2023-04-25T14:55:24;13.23;46.64
7942;HTU21D;4016;50.758;7.150;2023-04-25T15:00:24;13.50;48.76
7942;HTU21D;4016;50.758;7.150;2023-04-25T15:05:25;13.11;47.57
7942;HTU21D;4016;50.758;7.150;2023-04-25T15:10:26;12.80;45.28
7942;HTU21D;4016;50.758;7.150;2023-04-25T15:15:26;12.85;45.64
7942;HTU21D;4016;50.758;7.150;2023-04-25T15:20:26;12.62;48.76
7942;HTU21D;4016;50.758;7.150;2023-04-25T15:25:27;12.15;44.63
7942;HTU21D;4016;50.758;7.150;2023-04-25T15:30:28;12.42;45.05
7942;HTU21D;4016;50.758;7.150;2023-04-25T15:35:28;12.55;46.22
7942;HTU21D;4016;50.758;7.150;2023-04-25T15:40:29;12.70;46.40
7942;HTU21D;4016;50.758;7.150;2023-04-25T15:45:29;12.41;41.03
7942;HTU21D;4016;50.758;7.150;2023-04-25T15:50:31;12.40;45.17
7942;HTU21D;4016;50.758;7.150;2023-04-25T15:55:32;12.73;45.45
7942;HTU21D;4016;50.758;7.150;2023-04-25T16:00:33;12.35;45.03
7942;HTU21D;4016;50.758;7.150;2023-04-25T16:05:35;12.05;46.22
7942;HTU21D;4016;50.758;7.150;2023-04-25T16:10:36;11.87;50.95
7942;HTU21D;4016;50.758;7.150;2023-04-25T16:15:37;11.79;48.61
7942;HTU21D;4016;50.758;7.150;2023-04-25T16:20:39;11.49;50.55
7942;HTU21D;4016;50.758;7.150;2023-04-25T16:25:39;11.42;50.20
7942;HTU21D;4016;50.758;7.150;2023-04-25T16:30:40;11.39;50.61
7942;HTU21D;4016;50.758;7.150;2023-04-25T16:35:40;11.14;51.98
7942;HTU21D;4016;50.758;7.150;2023-04-25T16:40:40;11.16;51.54
7942;HTU21D;4016;50.758;7.150;2023-04-25T16:45:41;11.08;51.14
7942;HTU21D;4016;50.758;7.150;2023-04-25T16:50:41;11.09;52.50
7942;HTU21D;4016;50.758;7.150;2023-04-25T16:55:42;11.19;50.91
7942;HTU21D;4016;50.758;7.150;2023-04-25T17:00:42;11.12;50.65
7942;HTU21D;4016;50.758;7.150;2023-04-25T17:05:42;10.90;51.19
7942;HTU21D;4016;50.758;7.150;2023-04-25T17:10:43;10.71;52.16
7942;HTU21D;4016;50.758;7.150;2023-04-25T17:15:43;11.02;50.28
7942;HTU21D;4016;50.758;7.150;2023-04-25T17:20:44;10.69;52.67
7942;HTU21D;4016;50.758;7.150;2023-04-25T17:25:45;10.62;53.31
7942;HTU21D;4016;50.758;7.150;2023-04-25T17:30:45;10.44;54.91
7942;HTU21D;4016;50.758;7.150;2023-04-25T17:35:46;10.55;56.74
7942;HTU21D;4016;50.758;7.150;2023-04-25T17:40:46;10.43;58.64
7942;HTU21D;4016;50.758;7.150;2023-04-25T17:45:47;10.19;60.33
7942;HTU21D;4016;50.758;7.150;2023-04-25T17:50:47;10.40;58.83
7942;HTU21D;4016;50.758;7.150;2023-04-25T17:55:48;10.15;61.54
7942;HTU21D;4016;50.758;7.150;2023-04-25T18:00:49;10.15;61.94
7942;HTU21D;4016;50.758;7.150;2023-04-25T18:05:50;10.21;60.90
7942;HTU21D;4016;50.758;7.150;2023-04-25T18:10:51;10.13;62.10
7942;HTU21D;4016;50.758;7.150;2023-04-25T18:15:51;10.06;62.82
7942;HTU21D;4016;50.758;7.150;2023-04-25T18:20:52;10.18;60.64
7942;HTU21D;4016;50.758;7.150;2023-04-25T18:25:52;9.82;60.90
7942;HTU21D;4016;50.758;7.150;2023-04-25T18:30:53;9.72;59.93
7942;HTU21D;4016;50.758;7.150;2023-04-25T18:35:53;9.66;60.16
7942;HTU21D;4016;50.758;7.150;2023-04-25T18:40:54;9.56;62.05
7942;HTU21D;4016;50.758;7.150;2023-04-25T18:45:54;9.48;63.93
7942;HTU21D;4016;50.758;7.150;2023-04-25T18:50:54;9.24;63.73
7942;HTU21D;4016;50.758;7.150;2023-04-25T18:55:55;9.14;63.78
7942;HTU21D;4016;50.758;7.150;2023-04-25T19:00:55;9.01;63.50
7942;HTU21D;4016;50.758;7.150;2023-04-25T19:05:56;8.81;66.20
7942;HTU21D;4016;50.758;7.150;2023-04-25T19:10:56;8.64;67.04
7942;HTU21D;4016;50.758;7.150;2023-04-25T19:15:57;8.64;67.36
7942;HTU21D;4016;50.758;7.150;2023-04-25T19:20:57;8.55;69.02
7942;HTU21D;4016;50.758;7.150;2023-04-25T19:25:57;8.37;70.97
7942;HTU21D;4016;50.758;7.150;2023-04-25T19:30:58;8.14;75.15
7942;HTU21D;4016;50.758;7.150;2023-04-25T19:35:58;8.26;72.87
7942;HTU21D;4016;50.758;7.150;2023-04-25T19:40:59;8.16;73.56
7942;HTU21D;4016;50.758;7.150;2023-04-25T19:46:00;8.02;75.43
7942;HTU21D;4016;50.758;7.150;2023-04-25T19:51:00;7.78;78.95
7942;HTU21D;4016;50.758;7.150;2023-04-25T19:56:01;7.65;81.16
7942;HTU21D;4016;50.758;7.150;2023-04-25T20:01:01;7.55;84.29
7942;HTU21D;4016;50.758;7.150;2023-04-25T20:06:03;7.33;88.02
7942;HTU21D;4016;50.758;7.150;2023-04-25T20:11:03;7.18;92.37
7942;HTU21D;4016;50.758;7.150;2023-04-25T20:16:04;7.15;90.69
7942;HTU21D;4016;50.758;7.150;2023-04-25T20:21:04;7.13;89.04
7942;HTU21D;4016;50.758;7.150;2023-04-25T20:26:05;7.08;88.33
7942;HTU21D;4016;50.758;7.150;2023-04-25T20:31:05;6.99;88.38
7942;HTU21D;4016;50.758;7.150;2023-04-25T20:36:06;6.99;87.85
7942;HTU21D;4016;50.758;7.150;2023-04-25T20:41:06;6.73;90.16
7942;HTU21D;4016;50.758;7.150;2023-04-25T20:46:07;6.68;92.51
7942;HTU21D;4016;50.758;7.150;2023-04-25T20:51:08;6.68;92.51
7942;HTU21D;4016;50.758;7.150;2023-04-25T20:56:08;6.37;98.37
7942;HTU21D;4016;50.758;7.150;2023-04-25T21:01:10;6.21;101.09
7942;HTU21D;4016;50.758;7.150;2023-04-25T21:06:10;6.20;103.73
7942;HTU21D;4016;50.758;7.150;2023-04-25T21:11:11;6.22;104.44
7942;HTU21D;4016;50.758;7.150;2023-04-25T21:16:12;6.16;106.50
7942;HTU21D;4016;50.758;7.150;2023-04-25T21:21:12;6.12;107.37
7942;HTU21D;4016;50.758;7.150;2023-04-25T21:26:12;6.09;108.33
7942;HTU21D;4016;50.758;7.150;2023-04-25T21:31:13;5.99;107.59
7942;HTU21D;4016;50.758;7.150;2023-04-25T21:36:14;5.93;108.49
7942;HTU21D;4016;50.758;7.150;2023-04-25T21:41:15;5.82;110.17
7942;HTU21D;4016;50.758;7.150;2023-04-25T21:46:15;5.86;111.70
7942;HTU21D;4016;50.758;7.150;2023-04-25T21:51:16;5.86;112.27
7942;HTU21D;4016;50.758;7.150;2023-04-25T21:56:16;5.87;111.49
7942;HTU21D;4016;50.758;7.150;2023-04-25T22:01:17;5.85;112.16
7942;HTU21D;4016;50.758;7.150;2023-04-25T22:06:17;5.78;111.44
7942;HTU21D;4016;50.758;7.150;2023-04-25T22:11:17;5.81;111.84
7942;HTU21D;4016;50.758;7.150;2023-04-25T22:16:18;5.86;113.25
7942;HTU21D;4016;50.758;7.150;2023-04-25T22:21:19;5.89;113.35
7942;HTU21D;4016;50.758;7.150;2023-04-25T22:26:19;5.90;112.88
7942;HTU21D;4016;50.758;7.150;2023-04-25T22:31:20;5.90;112.35
7942;HTU21D;4016;50.758;7.150;2023-04-25T22:36:21;5.92;111.03
7942;HTU21D;4016;50.758;7.150;2023-04-25T22:41:23;6.19;106.47
7942;HTU21D;4016;50.758;7.150;2023-04-25T22:46:23;6.05;107.82
7942;HTU21D;4016;50.758;7.150;2023-04-25T22:51:23;6.00;108.72
7942;HTU21D;4016;50.758;7.150;2023-04-25T22:56:25;6.07;107.13
7942;HTU21D;4016;50.758;7.150;2023-04-25T23:01:28;5.99;108.12
7942;HTU21D;4016;50.758;7.150;2023-04-25T23:06:28;5.77;110.45
7942;HTU21D;4016;50.758;7.150;2023-04-25T23:11:29;5.67;111.65
7942;HTU21D;4016;50.758;7.150;2023-04-25T23:16:29;5.56;112.97
7942;HTU21D;4016;50.758;7.150;2023-04-25T23:21:29;5.47;113.07
7942;HTU21D;4016;50.758;7.150;2023-04-25T23:26:30;5.31;114.10
7942;HTU21D;4016;50.758;7.150;2023-04-25T23:31:30;5.28;115.66
7942;HTU21D;4016;50.758;7.150;2023-04-25T23:36:31;5.10;117.15
7942;HTU21D;4016;50.758;7.150;2023-04-25T23:41:31;4.90;118.56
7942;HTU21D;4016;50.758;7.150;2023-04-25T23:46:32;4.74;118.99
7942;HTU21D;4016;50.758;7.150;2023-04-25T23:51:33;4.58;118.99
7942;HTU21D;4016;50.758;7.150;2023-04-25T23:56:33;4.43;118.99
